sensor_id;sensor_type;location;lat;lon;timestamp;temperature;humidity
3954;DHT22;1991;48.682;9.030;2022-11-21T00:01:21;4.40;99.90
3954;DHT22;1991;48.682;9.030;2022-11-21T00:03:47;4.40;99.90
3954;DHT22;1991;48.682;9.030;2022-11-21T00:06:13;4.50;99.90
3954;DHT22;1991;48.682;9.030;2022-11-21T00:08:39;4.40;99.90
3954;DHT22;1991;48.682;9.030;2022-11-21T00:11:05;4.20;99.90
3954;DHT22;1991;48.682;9.030;2022-11-21T00:13:30;4.20;99.90
3954;DHT22;1991;48.682;9.030;2022-11-21T00:16:04;4.20;99.90
3954;DHT22;1991;48.682;9.030;2022-11-21T00:18:32;4.10;99.90
3954;DHT22;1991;48.682;9.030;2022-11-21T00:21:20;4.00;99.90
3954;DHT22;1991;48.682;9.030;2022-11-21T00:23:46;3.90;99.90
3954;DHT22;1991;48.682;9.030;2022-11-21T00:26:14;3.90;99.90
3954;DHT22;1991;48.682;9.030;2022-11-21T00:28:40;3.80;99.90
3954;DHT22;1991;48.682;9.030;2022-11-21T00:31:06;3.70;99.90
3954;DHT22;1991;48.682;9.030;2022-11-21T00:33:33;3.60;99.90
3954;DHT22;1991;48.682;9.030;2022-11-21T00:36:07;3.60;99.90
3954;DHT22;1991;48.682;9.030;2022-11-21T00:38:33;3.50;99.90
3954;DHT22;1991;48.682;9.030;2022-11-21T00:40:59;3.40;99.90
3954;DHT22;1991;48.682;9.030;2022-11-21T00:43:25;3.30;99.90
3954;DHT22;1991;48.682;9.030;2022-11-21T00:45:50;3.30;99.90
3954;DHT22;1991;48.682;9.030;2022-11-21T00:48:16;3.30;99.90
3954;DHT22;1991;48.682;9.030;2022-11-21T00:50:42;3.20;99.90
3954;DHT22;1991;48.682;9.030;2022-11-21T00:53:07;3.00;99.90
3954;DHT22;1991;48.682;9.030;2022-11-21T00:55:33;3.00;99.90
3954;DHT22;1991;48.682;9.030;2022-11-21T00:57:58;3.10;99.90
3954;DHT22;1991;48.682;9.030;2022-11-21T01:00:24;3.20;99.90
3954;DHT22;1991;48.682;9.030;2022-11-21T01:02:49;3.20;99.90
3954;DHT22;1991;48.682;9.030;2022-11-21T01:05:15;3.30;99.90
3954;DHT22;1991;48.682;9.030;2022-11-21T01:07:40;3.30;99.90
3954;DHT22;1991;48.682;9.030;2022-11-21T01:10:06;3.40;99.90
3954;DHT22;1991;48.682;9.030;2022-11-21T01:12:32;3.50;99.90
3954;DHT22;1991;48.682;9.030;2022-11-21T01:14:57;3.50;99.90
3954;DHT22;1991;48.682;9.030;2022-11-21T01:17:23;3.60;99.90
3954;DHT22;1991;48.682;9.030;2022-11-21T01:19:49;3.70;99.90
3954;DHT22;1991;48.682;9.030;2022-11-21T01:22:14;3.80;99.90
3954;DHT22;1991;48.682;9.030;2022-11-21T01:24:40;3.80;99.90
3954;DHT22;1991;48.682;9.030;2022-11-21T01:27:05;3.90;99.90
3954;DHT22;1991;48.682;9.030;2022-11-21T01:29:31;3.90;99.90
3954;DHT22;1991;48.682;9.030;2022-11-21T01:31:57;3.90;99.90
3954;DHT22;1991;48.682;9.030;2022-11-21T01:34:22;3.90;99.90
3954;DHT22;1991;48.682;9.030;2022-11-21T01:36:48;3.90;99.90
3954;DHT22;1991;48.682;9.030;2022-11-21T01:39:13;4.00;99.90
3954;DHT22;1991;48.682;9.030;2022-11-21T01:41:42;4.00;99.90
3954;DHT22;1991;48.682;9.030;2022-11-21T01:44:22;4.00;99.90
3954;DHT22;1991;48.682;9.030;2022-11-21T01:46:49;4.00;99.90
3954;DHT22;1991;48.682;9.030;2022-11-21T01:49:23;4.00;99.90
3954;DHT22;1991;48.682;9.030;2022-11-21T01:52:05;4.00;99.90
3954;DHT22;1991;48.682;9.030;2022-11-21T01:57:26;4.00;99.90
3954;DHT22;1991;48.682;9.030;2022-11-21T02:02:29;4.00;99.90
3954;DHT22;1991;48.682;9.030;2022-11-21T02:04:57;4.00;99.90
3954;DHT22;1991;48.682;9.030;2022-11-21T02:07:24;4.00;99.90
3954;DHT22;1991;48.682;9.030;2022-11-21T02:09:54;4.00;99.90
3954;DHT22;1991;48.682;9.030;2022-11-21T02:12:48;4.00;99.90
3954;DHT22;1991;48.682;9.030;2022-11-21T02:15:14;4.00;99.90
3954;DHT22;1991;48.682;9.030;2022-11-21T02:17:40;4.00;99.90
3954;DHT22;1991;48.682;9.030;2022-11-21T02:20:08;3.90;99.90
3954;DHT22;1991;48.682;9.030;2022-11-21T02:23:01;3.90;99.90
3954;DHT22;1991;48.682;9.030;2022-11-21T02:25:33;3.90;99.90
3954;DHT22;1991;48.682;9.030;2022-11-21T02:28:06;3.90;99.90
3954;DHT22;1991;48.682;9.030;2022-11-21T02:30:39;3.90;99.90
3954;DHT22;1991;48.682;9.030;2022-11-21T02:33:05;3.90;99.90
3954;DHT22;1991;48.682;9.030;2022-11-21T02:35:31;3.90;99.90
3954;DHT22;1991;48.682;9.030;2022-11-21T02:38:17;3.90;99.90
3954;DHT22;1991;48.682;9.030;2022-11-21T02:40:55;3.90;99.90
3954;DHT22;1991;48.682;9.030;2022-11-21T02:43:27;3.90;99.90
3954;DHT22;1991;48.682;9.030;2022-11-21T02:45:55;3.90;99.90
3954;DHT22;1991;48.682;9.030;2022-11-21T02:48:20;3.80;99.90
3954;DHT22;1991;48.682;9.030;2022-11-21T02:50:46;3.90;99.90
3954;DHT22;1991;48.682;9.030;2022-11-21T02:53:17;3.80;99.90
3954;DHT22;1991;48.682;9.030;2022-11-21T02:55:43;3.70;99.90
3954;DHT22;1991;48.682;9.030;2022-11-21T02:58:09;3.70;99.90
3954;DHT22;1991;48.682;9.030;2022-11-21T03:00:36;3.60;99.90
3954;DHT22;1991;48.682;9.030;2022-11-21T03:03:02;3.50;99.90
3954;DHT22;1991;48.682;9.030;2022-11-21T03:05:28;3.40;99.90
3954;DHT22;1991;48.682;9.030;2022-11-21T03:07:54;3.40;99.90
3954;DHT22;1991;48.682;9.030;2022-11-21T03:10:19;3.40;99.90
3954;DHT22;1991;48.682;9.030;2022-11-21T03:12:45;3.30;99.90
3954;DHT22;1991;48.682;9.030;2022-11-21T03:15:12;3.40;99.90
3954;DHT22;1991;48.682;9.030;2022-11-21T03:17:38;3.40;99.90
3954;DHT22;1991;48.682;9.030;2022-11-21T03:20:05;3.50;99.90
3954;DHT22;1991;48.682;9.030;2022-11-21T03:22:30;3.60;99.90
3954;DHT22;1991;48.682;9.030;2022-11-21T03:24:56;3.60;99.90
3954;DHT22;1991;48.682;9.030;2022-11-21T03:27:21;3.50;99.90
3954;DHT22;1991;48.682;9.030;2022-11-21T03:29:47;3.50;99.90
3954;DHT22;1991;48.682;9.030;2022-11-21T03:32:13;3.50;99.90
3954;DHT22;1991;48.682;9.030;2022-11-21T03:34:38;3.40;99.90
3954;DHT22;1991;48.682;9.030;2022-11-21T03:37:04;3.40;99.90
3954;DHT22;1991;48.682;9.030;2022-11-21T03:39:29;3.40;99.90
3954;DHT22;1991;48.682;9.030;2022-11-21T03:41:55;3.40;99.90
3954;DHT22;1991;48.682;9.030;2022-11-21T03:44:21;3.50;99.90
3954;DHT22;1991;48.682;9.030;2022-11-21T03:46:47;3.70;99.90
3954;DHT22;1991;48.682;9.030;2022-11-21T03:49:13;3.80;99.90
3954;DHT22;1991;48.682;9.030;2022-11-21T03:51:40;3.80;99.90
3954;DHT22;1991;48.682;9.030;2022-11-21T03:54:06;3.80;99.90
3954;DHT22;1991;48.682;9.030;2022-11-21T03:56:32;3.80;99.90
3954;DHT22;1991;48.682;9.030;2022-11-21T03:58:58;3.80;99.90
3954;DHT22;1991;48.682;9.030;2022-11-21T04:01:23;3.80;99.90
3954;DHT22;1991;48.682;9.030;2022-11-21T04:03:49;3.90;99.90
3954;DHT22;1991;48.682;9.030;2022-11-21T04:06:17;3.90;99.90
3954;DHT22;1991;48.682;9.030;2022-11-21T04:08:43;3.90;99.90
3954;DHT22;1991;48.682;9.030;2022-11-21T04:11:09;3.90;99.90
3954;DHT22;1991;48.682;9.030;2022-11-21T04:13:35;3.90;99.90
3954;DHT22;1991;48.682;9.030;2022-11-21T04:16:01;3.90;99.90
3954;DHT22;1991;48.682;9.030;2022-11-21T04:18:27;3.90;99.90
3954;DHT22;1991;48.682;9.030;2022-11-21T04:21:00;4.00;99.90
3954;DHT22;1991;48.682;9.030;2022-11-21T04:23:26;4.00;99.90
3954;DHT22;1991;48.682;9.030;2022-11-21T04:25:52;4.10;99.90
3954;DHT22;1991;48.682;9.030;2022-11-21T04:28:19;4.20;99.90
3954;DHT22;1991;48.682;9.030;2022-11-21T04:30:45;4.20;99.90
3954;DHT22;1991;48.682;9.030;2022-11-21T04:33:11;4.20;99.90
3954;DHT22;1991;48.682;9.030;2022-11-21T04:35:37;4.20;99.90
3954;DHT22;1991;48.682;9.030;2022-11-21T04:38:04;4.20;99.90
3954;DHT22;1991;48.682;9.030;2022-11-21T04:40:29;4.10;99.90
3954;DHT22;1991;48.682;9.030;2022-11-21T04:42:55;4.20;99.90
3954;DHT22;1991;48.682;9.030;2022-11-21T04:45:21;4.10;99.90
3954;DHT22;1991;48.682;9.030;2022-11-21T04:47:46;4.10;99.90
3954;DHT22;1991;48.682;9.030;2022-11-21T04:50:16;4.10;99.90
3954;DHT22;1991;48.682;9.030;2022-11-21T04:52:42;4.10;99.90
3954;DHT22;1991;48.682;9.030;2022-11-21T04:55:13;4.20;99.90
3954;DHT22;1991;48.682;9.030;2022-11-21T04:57:38;4.20;99.90
3954;DHT22;1991;48.682;9.030;2022-11-21T05:00:04;4.30;99.90
3954;DHT22;1991;48.682;9.030;2022-11-21T05:02:31;4.20;99.90
3954;DHT22;1991;48.682;9.030;2022-11-21T05:04:57;4.20;99.90
3954;DHT22;1991;48.682;9.030;2022-11-21T05:07:22;4.30;99.90
3954;DHT22;1991;48.682;9.030;2022-11-21T05:09:48;4.30;99.90
3954;DHT22;1991;48.682;9.030;2022-11-21T05:12:13;4.40;99.90
3954;DHT22;1991;48.682;9.030;2022-11-21T05:14:58;4.30;99.90
3954;DHT22;1991;48.682;9.030;2022-11-21T05:17:23;4.40;99.90
3954;DHT22;1991;48.682;9.030;2022-11-21T05:19:49;4.40;99.90
3954;DHT22;1991;48.682;9.030;2022-11-21T05:22:14;4.30;99.90
3954;DHT22;1991;48.682;9.030;2022-11-21T05:24:40;4.40;99.90
3954;DHT22;1991;48.682;9.030;2022-11-21T05:27:05;4.40;99.90
3954;DHT22;1991;48.682;9.030;2022-11-21T05:29:31;4.40;99.90
3954;DHT22;1991;48.682;9.030;2022-11-21T05:31:56;4.50;99.90
3954;DHT22;1991;48.682;9.030;2022-11-21T05:34:22;4.50;99.90
3954;DHT22;1991;48.682;9.030;2022-11-21T05:36:48;4.50;99.90
3954;DHT22;1991;48.682;9.030;2022-11-21T05:39:13;4.40;99.90
3954;DHT22;1991;48.682;9.030;2022-11-21T05:41:40;4.30;99.90
3954;DHT22;1991;48.682;9.030;2022-11-21T05:44:06;4.30;99.90
3954;DHT22;1991;48.682;9.030;2022-11-21T05:46:31;4.30;99.90
3954;DHT22;1991;48.682;9.030;2022-11-21T05:48:57;4.10;99.90
3954;DHT22;1991;48.682;9.030;2022-11-21T05:51:22;4.10;99.90
3954;DHT22;1991;48.682;9.030;2022-11-21T05:53:48;4.10;99.90
3954;DHT22;1991;48.682;9.030;2022-11-21T05:56:16;4.20;99.90
3954;DHT22;1991;48.682;9.030;2022-11-21T05:58:42;4.20;99.90
3954;DHT22;1991;48.682;9.030;2022-11-21T06:01:09;4.20;99.90
3954;DHT22;1991;48.682;9.030;2022-11-21T06:03:37;4.20;99.90
3954;DHT22;1991;48.682;9.030;2022-11-21T06:06:15;4.30;99.90
3954;DHT22;1991;48.682;9.030;2022-11-21T06:08:43;4.20;99.90
3954;DHT22;1991;48.682;9.030;2022-11-21T06:11:11;4.00;99.90
3954;DHT22;1991;48.682;9.030;2022-11-21T06:13:37;3.90;99.90
3954;DHT22;1991;48.682;9.030;2022-11-21T06:16:11;3.70;99.90
3954;DHT22;1991;48.682;9.030;2022-11-21T06:18:39;3.60;99.90
3954;DHT22;1991;48.682;9.030;2022-11-21T06:21:13;3.60;99.90
3954;DHT22;1991;48.682;9.030;2022-11-21T06:23:39;3.40;99.90
3954;DHT22;1991;48.682;9.030;2022-11-21T06:26:07;3.30;99.90
3954;DHT22;1991;48.682;9.030;2022-11-21T06:28:39;3.20;99.90
3954;DHT22;1991;48.682;9.030;2022-11-21T06:31:06;3.10;99.90
3954;DHT22;1991;48.682;9.030;2022-11-21T06:33:32;2.90;99.90
3954;DHT22;1991;48.682;9.030;2022-11-21T06:36:04;2.90;99.90
3954;DHT22;1991;48.682;9.030;2022-11-21T06:38:30;2.90;99.90
3954;DHT22;1991;48.682;9.030;2022-11-21T06:40:56;2.80;99.90
3954;DHT22;1991;48.682;9.030;2022-11-21T06:43:22;2.70;99.90
3954;DHT22;1991;48.682;9.030;2022-11-21T06:45:47;2.70;99.90
3954;DHT22;1991;48.682;9.030;2022-11-21T06:48:13;2.60;99.90
3954;DHT22;1991;48.682;9.030;2022-11-21T06:50:38;2.50;99.90
3954;DHT22;1991;48.682;9.030;2022-11-21T06:53:04;2.50;99.90
3954;DHT22;1991;48.682;9.030;2022-11-21T06:55:30;2.50;99.90
3954;DHT22;1991;48.682;9.030;2022-11-21T06:57:57;2.40;99.90
3954;DHT22;1991;48.682;9.030;2022-11-21T07:00:23;2.40;99.90
3954;DHT22;1991;48.682;9.030;2022-11-21T07:02:49;2.50;99.90
3954;DHT22;1991;48.682;9.030;2022-11-21T07:05:15;2.40;99.90
3954;DHT22;1991;48.682;9.030;2022-11-21T07:07:40;2.40;99.90
3954;DHT22;1991;48.682;9.030;2022-11-21T07:10:06;2.40;99.90
3954;DHT22;1991;48.682;9.030;2022-11-21T07:12:34;2.40;99.90
3954;DHT22;1991;48.682;9.030;2022-11-21T07:15:18;2.50;99.90
3954;DHT22;1991;48.682;9.030;2022-11-21T07:17:43;2.50;99.90
3954;DHT22;1991;48.682;9.030;2022-11-21T07:20:09;2.60;99.90
3954;DHT22;1991;48.682;9.030;2022-11-21T07:22:35;2.60;99.90
3954;DHT22;1991;48.682;9.030;2022-11-21T07:25:01;2.60;99.90
3954;DHT22;1991;48.682;9.030;2022-11-21T07:27:26;2.60;99.90
3954;DHT22;1991;48.682;9.030;2022-11-21T07:29:52;2.70;99.90
3954;DHT22;1991;48.682;9.030;2022-11-21T07:32:17;3.00;99.90
3954;DHT22;1991;48.682;9.030;2022-11-21T07:34:43;3.10;99.90
3954;DHT22;1991;48.682;9.030;2022-11-21T07:37:08;3.10;99.90
3954;DHT22;1991;48.682;9.030;2022-11-21T07:39:34;3.20;99.90
3954;DHT22;1991;48.682;9.030;2022-11-21T07:42:00;3.40;99.90
3954;DHT22;1991;48.682;9.030;2022-11-21T07:44:25;3.50;99.90
3954;DHT22;1991;48.682;9.030;2022-11-21T07:46:54;3.70;99.90
3954;DHT22;1991;48.682;9.030;2022-11-21T07:49:21;3.90;99.90
3954;DHT22;1991;48.682;9.030;2022-11-21T07:51:46;3.90;99.90
3954;DHT22;1991;48.682;9.030;2022-11-21T07:54:12;4.10;99.90
3954;DHT22;1991;48.682;9.030;2022-11-21T07:56:37;4.40;99.90
3954;DHT22;1991;48.682;9.030;2022-11-21T07:59:03;4.60;99.90
3954;DHT22;1991;48.682;9.030;2022-11-21T08:01:29;4.90;99.90
3954;DHT22;1991;48.682;9.030;2022-11-21T08:03:54;5.20;99.90
3954;DHT22;1991;48.682;9.030;2022-11-21T08:06:20;5.40;99.90
3954;DHT22;1991;48.682;9.030;2022-11-21T08:08:45;5.70;99.90
3954;DHT22;1991;48.682;9.030;2022-11-21T08:11:12;5.90;99.90
3954;DHT22;1991;48.682;9.030;2022-11-21T08:13:38;6.00;99.90
3954;DHT22;1991;48.682;9.030;2022-11-21T08:16:03;6.10;99.90
3954;DHT22;1991;48.682;9.030;2022-11-21T08:18:29;6.30;99.90
3954;DHT22;1991;48.682;9.030;2022-11-21T08:20:55;6.50;99.90
3954;DHT22;1991;48.682;9.030;2022-11-21T08:23:21;6.80;99.90
3954;DHT22;1991;48.682;9.030;2022-11-21T08:25:46;6.90;99.90
3954;DHT22;1991;48.682;9.030;2022-11-21T08:28:12;7.30;99.90
3954;DHT22;1991;48.682;9.030;2022-11-21T08:30:39;7.60;99.90
3954;DHT22;1991;48.682;9.030;2022-11-21T08:33:05;7.70;99.90
3954;DHT22;1991;48.682;9.030;2022-11-21T08:35:31;7.70;99.90
3954;DHT22;1991;48.682;9.030;2022-11-21T08:37:58;7.50;99.90
3954;DHT22;1991;48.682;9.030;2022-11-21T08:40:24;7.70;99.90
3954;DHT22;1991;48.682;9.030;2022-11-21T08:43:02;7.90;99.90
3954;DHT22;1991;48.682;9.030;2022-11-21T08:45:28;7.90;99.90
3954;DHT22;1991;48.682;9.030;2022-11-21T08:47:54;8.00;99.90
3954;DHT22;1991;48.682;9.030;2022-11-21T08:50:21;8.00;99.90
3954;DHT22;1991;48.682;9.030;2022-11-21T08:52:47;8.10;99.90
3954;DHT22;1991;48.682;9.030;2022-11-21T08:55:13;8.40;99.90
3954;DHT22;1991;48.682;9.030;2022-11-21T08:57:39;8.90;99.90
3954;DHT22;1991;48.682;9.030;2022-11-21T09:00:06;9.30;99.90
3954;DHT22;1991;48.682;9.030;2022-11-21T09:02:32;9.70;99.90
3954;DHT22;1991;48.682;9.030;2022-11-21T09:04:57;11.30;99.90
3954;DHT22;1991;48.682;9.030;2022-11-21T09:07:24;13.80;96.30
3954;DHT22;1991;48.682;9.030;2022-11-21T09:09:50;14.20;90.30
3954;DHT22;1991;48.682;9.030;2022-11-21T09:12:15;15.60;84.80
3954;DHT22;1991;48.682;9.030;2022-11-21T09:14:41;17.30;75.10
3954;DHT22;1991;48.682;9.030;2022-11-21T09:17:25;19.50;67.40
3954;DHT22;1991;48.682;9.030;2022-11-21T09:20:09;20.40;60.10
3954;DHT22;1991;48.682;9.030;2022-11-21T09:22:35;21.40;54.30
3954;DHT22;1991;48.682;9.030;2022-11-21T09:25:00;22.50;52.20
3954;DHT22;1991;48.682;9.030;2022-11-21T09:27:26;22.30;50.30
3954;DHT22;1991;48.682;9.030;2022-11-21T09:29:52;22.50;50.30
3954;DHT22;1991;48.682;9.030;2022-11-21T09:32:17;19.60;52.60
3954;DHT22;1991;48.682;9.030;2022-11-21T09:34:43;19.20;56.70
3954;DHT22;1991;48.682;9.030;2022-11-21T09:37:08;19.70;54.20
3954;DHT22;1991;48.682;9.030;2022-11-21T09:39:34;18.60;58.20
3954;DHT22;1991;48.682;9.030;2022-11-21T09:44:39;22.50;49.60
3954;DHT22;1991;48.682;9.030;2022-11-21T09:47:26;24.40;47.40
3954;DHT22;1991;48.682;9.030;2022-11-21T09:52:31;24.40;45.80
3954;DHT22;1991;48.682;9.030;2022-11-21T09:55:02;26.10;43.30
3954;DHT22;1991;48.682;9.030;2022-11-21T09:57:30;26.40;40.90
3954;DHT22;1991;48.682;9.030;2022-11-21T09:59:57;27.90;39.00
3954;DHT22;1991;48.682;9.030;2022-11-21T10:02:23;27.30;37.80
3954;DHT22;1991;48.682;9.030;2022-11-21T10:04:50;26.50;38.90
3954;DHT22;1991;48.682;9.030;2022-11-21T10:07:31;25.90;40.20
3954;DHT22;1991;48.682;9.030;2022-11-21T10:10:19;27.20;39.10
3954;DHT22;1991;48.682;9.030;2022-11-21T10:13:05;28.80;38.20
3954;DHT22;1991;48.682;9.030;2022-11-21T10:18:37;29.30;36.50
3954;DHT22;1991;48.682;9.030;2022-11-21T10:26:55;29.70;35.90
3954;DHT22;1991;48.682;9.030;2022-11-21T10:32:07;26.60;37.40
3954;DHT22;1991;48.682;9.030;2022-11-21T10:34:37;28.30;36.60
3954;DHT22;1991;48.682;9.030;2022-11-21T10:37:14;31.20;35.40
3954;DHT22;1991;48.682;9.030;2022-11-21T10:39:45;26.60;35.00
3954;DHT22;1991;48.682;9.030;2022-11-21T10:44:47;28.00;36.40
3954;DHT22;1991;48.682;9.030;2022-11-21T10:47:33;27.80;35.90
3954;DHT22;1991;48.682;9.030;2022-11-21T10:53:16;27.50;36.20
3954;DHT22;1991;48.682;9.030;2022-11-21T10:58:43;27.00;36.70
3954;DHT22;1991;48.682;9.030;2022-11-21T11:06:29;28.30;35.30
3954;DHT22;1991;48.682;9.030;2022-11-21T11:08:55;28.10;35.10
3954;DHT22;1991;48.682;9.030;2022-11-21T11:11:22;27.10;35.30
3954;DHT22;1991;48.682;9.030;2022-11-21T11:14:00;26.10;36.50
3954;DHT22;1991;48.682;9.030;2022-11-21T11:16:27;27.60;36.90
3954;DHT22;1991;48.682;9.030;2022-11-21T11:21:25;25.80;34.80
3954;DHT22;1991;48.682;9.030;2022-11-21T11:23:53;20.30;40.50
3954;DHT22;1991;48.682;9.030;2022-11-21T11:26:29;16.90;48.30
3954;DHT22;1991;48.682;9.030;2022-11-21T11:29:07;14.70;54.20
3954;DHT22;1991;48.682;9.030;2022-11-21T11:34:11;12.70;60.50
3954;DHT22;1991;48.682;9.030;2022-11-21T11:36:55;12.30;60.80
3954;DHT22;1991;48.682;9.030;2022-11-21T11:39:49;12.00;63.80
3954;DHT22;1991;48.682;9.030;2022-11-21T11:47:57;15.80;55.50
3954;DHT22;1991;48.682;9.030;2022-11-21T11:53:03;13.70;58.60
3954;DHT22;1991;48.682;9.030;2022-11-21T11:55:42;17.40;54.00
3954;DHT22;1991;48.682;9.030;2022-11-21T11:58:32;22.70;44.80
3954;DHT22;1991;48.682;9.030;2022-11-21T12:04:22;25.50;38.80
3954;DHT22;1991;48.682;9.030;2022-11-21T12:07:03;22.90;36.60
3954;DHT22;1991;48.682;9.030;2022-11-21T12:09:53;19.10;41.90
3954;DHT22;1991;48.682;9.030;2022-11-21T12:12:38;17.40;49.00
3954;DHT22;1991;48.682;9.030;2022-11-21T12:21:08;23.60;38.30
3954;DHT22;1991;48.682;9.030;2022-11-21T12:23:56;24.40;38.00
3954;DHT22;1991;48.682;9.030;2022-11-21T12:26:49;28.40;35.90
3954;DHT22;1991;48.682;9.030;2022-11-21T12:57:18;23.60;36.20
3954;DHT22;1991;48.682;9.030;2022-11-21T12:59:49;24.80;35.70
3954;DHT22;1991;48.682;9.030;2022-11-21T13:05:17;26.40;32.80
3954;DHT22;1991;48.682;9.030;2022-11-21T13:07:45;24.50;33.70
3954;DHT22;1991;48.682;9.030;2022-11-21T13:10:14;21.60;37.30
3954;DHT22;1991;48.682;9.030;2022-11-21T13:12:48;20.80;40.30
3954;DHT22;1991;48.682;9.030;2022-11-21T13:15:28;21.90;39.50
3954;DHT22;1991;48.682;9.030;2022-11-21T13:18:12;21.60;39.00
3954;DHT22;1991;48.682;9.030;2022-11-21T13:20:47;21.10;40.00
3954;DHT22;1991;48.682;9.030;2022-11-21T13:29:12;23.50;38.20
3954;DHT22;1991;48.682;9.030;2022-11-21T13:31:39;24.40;36.70
3954;DHT22;1991;48.682;9.030;2022-11-21T13:34:34;23.50;34.50
3954;DHT22;1991;48.682;9.030;2022-11-21T13:37:00;20.20;38.60
3954;DHT22;1991;48.682;9.030;2022-11-21T13:39:31;17.60;42.90
3954;DHT22;1991;48.682;9.030;2022-11-21T13:42:05;15.70;47.40
3954;DHT22;1991;48.682;9.030;2022-11-21T13:44:50;14.60;50.00
3954;DHT22;1991;48.682;9.030;2022-11-21T13:53:57;12.90;55.70
3954;DHT22;1991;48.682;9.030;2022-11-21T13:56:14;13.00;56.80
3954;DHT22;1991;48.682;9.030;2022-11-21T14:07:31;12.50;59.80
3954;DHT22;1991;48.682;9.030;2022-11-21T14:10:03;12.30;60.90
3954;DHT22;1991;48.682;9.030;2022-11-21T14:12:33;12.00;61.90
3954;DHT22;1991;48.682;9.030;2022-11-21T14:19:58;11.30;64.40
3954;DHT22;1991;48.682;9.030;2022-11-21T14:24:53;10.90;66.20
3954;DHT22;1991;48.682;9.030;2022-11-21T14:27:30;10.70;66.70
3954;DHT22;1991;48.682;9.030;2022-11-21T14:29:57;10.60;67.30
3954;DHT22;1991;48.682;9.030;2022-11-21T14:32:29;10.50;68.20
3954;DHT22;1991;48.682;9.030;2022-11-21T14:35:19;10.30;68.20
3954;DHT22;1991;48.682;9.030;2022-11-21T14:37:45;10.20;68.60
3954;DHT22;1991;48.682;9.030;2022-11-21T14:40:23;10.00;69.80
3954;DHT22;1991;48.682;9.030;2022-11-21T14:42:49;9.80;70.60
3954;DHT22;1991;48.682;9.030;2022-11-21T14:45:20;9.80;71.40
3954;DHT22;1991;48.682;9.030;2022-11-21T14:47:47;9.60;71.80
3954;DHT22;1991;48.682;9.030;2022-11-21T14:50:32;9.60;72.30
3954;DHT22;1991;48.682;9.030;2022-11-21T14:52:59;9.50;73.70
3954;DHT22;1991;48.682;9.030;2022-11-21T14:55:30;9.40;75.00
3954;DHT22;1991;48.682;9.030;2022-11-21T14:57:58;9.40;74.70
3954;DHT22;1991;48.682;9.030;2022-11-21T15:00:27;9.30;74.80
3954;DHT22;1991;48.682;9.030;2022-11-21T15:02:55;9.30;75.90
3954;DHT22;1991;48.682;9.030;2022-11-21T15:05:27;9.10;77.20
3954;DHT22;1991;48.682;9.030;2022-11-21T15:07:53;9.00;77.20
3954;DHT22;1991;48.682;9.030;2022-11-21T15:10:21;8.80;78.20
3954;DHT22;1991;48.682;9.030;2022-11-21T15:13:08;8.70;80.50
3954;DHT22;1991;48.682;9.030;2022-11-21T15:15:48;8.50;82.20
3954;DHT22;1991;48.682;9.030;2022-11-21T15:18:21;8.40;84.80
3954;DHT22;1991;48.682;9.030;2022-11-21T15:20:48;8.30;87.80
3954;DHT22;1991;48.682;9.030;2022-11-21T15:23:31;8.10;90.20
3954;DHT22;1991;48.682;9.030;2022-11-21T15:25:58;7.90;92.00
3954;DHT22;1991;48.682;9.030;2022-11-21T15:28:24;7.80;93.60
3954;DHT22;1991;48.682;9.030;2022-11-21T15:33:54;7.50;96.50
3954;DHT22;1991;48.682;9.030;2022-11-21T15:36:19;7.30;97.50
3954;DHT22;1991;48.682;9.030;2022-11-21T15:39:00;7.20;98.70
3954;DHT22;1991;48.682;9.030;2022-11-21T15:41:27;7.10;99.60
3954;DHT22;1991;48.682;9.030;2022-11-21T15:48:54;6.70;99.90
3954;DHT22;1991;48.682;9.030;2022-11-21T15:51:22;6.60;99.90
3954;DHT22;1991;48.682;9.030;2022-11-21T15:53:48;6.50;99.90
3954;DHT22;1991;48.682;9.030;2022-11-21T15:56:16;6.40;99.90
3954;DHT22;1991;48.682;9.030;2022-11-21T15:58:42;6.30;99.90
3954;DHT22;1991;48.682;9.030;2022-11-21T16:01:22;6.20;99.90
3954;DHT22;1991;48.682;9.030;2022-11-21T16:03:51;6.10;99.90
3954;DHT22;1991;48.682;9.030;2022-11-21T16:06:17;6.00;99.90
3954;DHT22;1991;48.682;9.030;2022-11-21T16:08:43;5.90;99.90
3954;DHT22;1991;48.682;9.030;2022-11-21T16:11:31;5.90;99.90
3954;DHT22;1991;48.682;9.030;2022-11-21T16:13:58;5.80;99.90
3954;DHT22;1991;48.682;9.030;2022-11-21T16:16:30;5.70;99.90
3954;DHT22;1991;48.682;9.030;2022-11-21T16:18:57;5.60;99.90
3954;DHT22;1991;48.682;9.030;2022-11-21T16:21:23;5.50;99.90
3954;DHT22;1991;48.682;9.030;2022-11-21T16:23:49;5.50;99.90
3954;DHT22;1991;48.682;9.030;2022-11-21T16:26:16;5.50;99.90
3954;DHT22;1991;48.682;9.030;2022-11-21T16:28:43;5.50;99.90
3954;DHT22;1991;48.682;9.030;2022-11-21T16:31:20;5.50;99.90
3954;DHT22;1991;48.682;9.030;2022-11-21T16:33:46;5.50;99.90
3954;DHT22;1991;48.682;9.030;2022-11-21T16:36:12;5.40;99.90
3954;DHT22;1991;48.682;9.030;2022-11-21T16:38:40;5.40;99.90
3954;DHT22;1991;48.682;9.030;2022-11-21T16:41:06;5.40;99.90
3954;DHT22;1991;48.682;9.030;2022-11-21T16:43:32;5.40;99.90
3954;DHT22;1991;48.682;9.030;2022-11-21T16:46:08;5.40;99.90
3954;DHT22;1991;48.682;9.030;2022-11-21T16:48:34;5.30;99.90
3954;DHT22;1991;48.682;9.030;2022-11-21T16:51:19;5.30;99.90
3954;DHT22;1991;48.682;9.030;2022-11-21T16:53:46;5.30;99.90
3954;DHT22;1991;48.682;9.030;2022-11-21T16:56:12;5.30;99.90
3954;DHT22;1991;48.682;9.030;2022-11-21T16:58:39;5.40;99.90
3954;DHT22;1991;48.682;9.030;2022-11-21T17:03:36;5.50;99.90
3954;DHT22;1991;48.682;9.030;2022-11-21T17:06:02;5.50;99.90
3954;DHT22;1991;48.682;9.030;2022-11-21T17:08:28;5.50;99.90
3954;DHT22;1991;48.682;9.030;2022-11-21T17:10:54;5.50;99.90
3954;DHT22;1991;48.682;9.030;2022-11-21T17:13:19;5.50;99.90
3954;DHT22;1991;48.682;9.030;2022-11-21T17:15:45;5.50;99.90
3954;DHT22;1991;48.682;9.030;2022-11-21T17:18:11;5.40;99.90
3954;DHT22;1991;48.682;9.030;2022-11-21T17:20:36;5.30;99.90
3954;DHT22;1991;48.682;9.030;2022-11-21T17:23:02;5.30;99.90
3954;DHT22;1991;48.682;9.030;2022-11-21T17:25:28;5.30;99.90
3954;DHT22;1991;48.682;9.030;2022-11-21T17:27:54;5.20;99.90
3954;DHT22;1991;48.682;9.030;2022-11-21T17:30:20;5.20;99.90
3954;DHT22;1991;48.682;9.030;2022-11-21T17:32:45;5.20;99.90
3954;DHT22;1991;48.682;9.030;2022-11-21T17:35:11;5.20;99.90
3954;DHT22;1991;48.682;9.030;2022-11-21T17:37:36;5.20;99.90
3954;DHT22;1991;48.682;9.030;2022-11-21T17:40:02;5.20;99.90
3954;DHT22;1991;48.682;9.030;2022-11-21T17:42:28;5.20;99.90
3954;DHT22;1991;48.682;9.030;2022-11-21T17:44:54;5.30;99.90
3954;DHT22;1991;48.682;9.030;2022-11-21T17:47:20;5.20;99.90
3954;DHT22;1991;48.682;9.030;2022-11-21T17:49:45;5.30;99.90
3954;DHT22;1991;48.682;9.030;2022-11-21T17:52:11;5.50;99.90
3954;DHT22;1991;48.682;9.030;2022-11-21T17:54:36;5.50;99.90
3954;DHT22;1991;48.682;9.030;2022-11-21T17:57:02;5.60;99.90
3954;DHT22;1991;48.682;9.030;2022-11-21T17:59:27;5.70;99.90
3954;DHT22;1991;48.682;9.030;2022-11-21T18:01:54;5.90;99.90
3954;DHT22;1991;48.682;9.030;2022-11-21T18:04:20;6.00;99.90
3954;DHT22;1991;48.682;9.030;2022-11-21T18:06:45;5.90;99.90
3954;DHT22;1991;48.682;9.030;2022-11-21T18:09:11;5.90;99.90
3954;DHT22;1991;48.682;9.030;2022-11-21T18:11:38;5.90;99.90
3954;DHT22;1991;48.682;9.030;2022-11-21T18:14:05;6.00;99.90
3954;DHT22;1991;48.682;9.030;2022-11-21T18:16:32;5.90;99.90
3954;DHT22;1991;48.682;9.030;2022-11-21T18:18:58;5.90;99.90
3954;DHT22;1991;48.682;9.030;2022-11-21T18:21:26;5.90;99.90
3954;DHT22;1991;48.682;9.030;2022-11-21T18:23:53;5.90;99.90
3954;DHT22;1991;48.682;9.030;2022-11-21T18:26:22;5.80;99.90
3954;DHT22;1991;48.682;9.030;2022-11-21T18:28:49;5.80;99.90
3954;DHT22;1991;48.682;9.030;2022-11-21T18:31:17;5.80;99.90
3954;DHT22;1991;48.682;9.030;2022-11-21T18:33:46;5.70;99.90